Time;durP1;ratioP1;P1;durP2;ratioP2;P2;SDS_P1;SDS_P2;PMS_P1;PMS_P2;Temp;Humidity;BMP_temperature;BMP_pressure;BME280_temperature;BME280_humidity;BME280_pressure;Samples;Min_cycle;Max_cycle;Signal;HPM_P1;HPM_P2
2022/05/27 00:01:13;;;;;;;;;;;15.30;99.90;;;;;;5072323;28;19928;-66
2022/05/27 00:03:39;;;;;;;;;;;15.20;99.90;;;;;;5071913;28;19925;-64
2022/05/27 00:06:06;;;;;;;;;;;15.20;99.90;;;;;;5072225;28;19924;-66
2022/05/27 00:08:33;;;;;;;;;;;15.20;99.90;;;;;;5072215;28;19924;-64
2022/05/27 00:11:03;;;;;;;;;;;15.10;99.90;;;;;;5072178;28;20296;-64
2022/05/27 00:13:30;;;;;;;;;;;15.00;99.90;;;;;;5072199;28;19932;-65
2022/05/27 00:15:57;;;;;;;;;;;15.10;99.90;;;;;;5072128;28;20339;-64
2022/05/27 00:18:24;;;;;;;;;;;15.00;99.90;;;;;;5072031;28;19970;-63
2022/05/27 00:20:51;;;;;;;;;;;15.10;99.90;;;;;;5071654;28;20380;-64
2022/05/27 00:23:18;;;;;;;;;;;15.10;99.90;;;;;;5072201;28;19978;-63
2022/05/27 00:25:45;;;;;;;;;;;15.00;99.90;;;;;;5071860;28;19928;-64
2022/05/27 00:28:13;;;;;;;;;;;15.00;99.90;;;;;;5071841;28;19924;-65
2022/05/27 00:30:40;;;;;;;;;;;15.00;99.90;;;;;;5071565;28;20388;-64
2022/05/27 00:33:07;;;;;;;;;;;15.00;99.90;;;;;;5071653;28;19924;-64
2022/05/27 00:35:34;;;;;;;;;;;14.90;99.90;;;;;;5071757;28;19925;-66
2022/05/27 00:38:01;;;;;;;;;;;14.90;99.90;;;;;;5071905;28;19924;-63
2022/05/27 00:40:34;;;;;;;;;;;14.90;99.90;;;;;;5071085;28;19924;-64
2022/05/27 00:43:01;;;;;;;;;;;14.90;99.90;;;;;;5071764;28;19928;-64
2022/05/27 00:45:29;;;;;;;;;;;14.80;99.90;;;;;;5071359;28;19931;-64
2022/05/27 00:47:58;;;;;;;;;;;14.80;99.90;;;;;;5071511;28;19936;-64
2022/05/27 00:50:27;;;;;;;;;;;14.80;99.90;;;;;;5071316;28;20012;-64
2022/05/27 00:52:54;;;;;;;;;;;14.90;99.90;;;;;;5071473;28;19925;-64
2022/05/27 00:55:21;;;;;;;;;;;14.90;99.90;;;;;;5071115;28;19924;-64
2022/05/27 00:57:50;;;;;;;;;;;14.80;99.90;;;;;;5070899;28;19925;-64
2022/05/27 01:00:17;;;;;;;;;;;14.90;99.90;;;;;;5071219;28;19952;-64
2022/05/27 01:02:46;;;;;;;;;;;14.90;99.90;;;;;;5071555;28;19929;-64
2022/05/27 01:05:14;;;;;;;;;;;14.90;99.90;;;;;;5070544;28;20342;-63
2022/05/27 01:07:41;;;;;;;;;;;14.80;99.90;;;;;;5071096;28;19929;-65
2022/05/27 01:10:10;;;;;;;;;;;14.80;99.90;;;;;;5070583;28;19925;-64
2022/05/27 01:12:47;;;;;;;;;;;14.80;99.90;;;;;;5071095;28;19976;-64
2022/05/27 01:15:18;;;;;;;;;;;14.80;99.90;;;;;;5070944;28;19975;-64
2022/05/27 01:18:04;;;;;;;;;;;14.80;99.90;;;;;;5071126;28;19932;-64
2022/05/27 01:20:32;;;;;;;;;;;14.80;99.90;;;;;;5070719;28;20441;-64
2022/05/27 01:23:27;;;;;;;;;;;14.80;99.90;;;;;;5070738;28;19927;-63
2022/05/27 01:26:12;;;;;;;;;;;14.80;99.90;;;;;;5070720;28;19925;-64
2022/05/27 01:28:41;;;;;;;;;;;14.80;99.90;;;;;;5070878;28;19929;-64
2022/05/27 01:31:14;;;;;;;;;;;14.80;99.90;;;;;;5070287;28;19925;-66
2022/05/27 01:33:43;;;;;;;;;;;14.70;99.90;;;;;;5070554;28;20350;-65
2022/05/27 01:36:15;;;;;;;;;;;14.70;99.90;;;;;;5070578;28;19970;-64
2022/05/27 01:38:44;;;;;;;;;;;14.80;99.90;;;;;;5070635;28;19924;-63
2022/05/27 01:41:13;;;;;;;;;;;14.80;99.90;;;;;;5070494;28;19928;-64
2022/05/27 01:43:42;;;;;;;;;;;14.80;99.90;;;;;;5069399;28;19925;-63
2022/05/27 01:46:15;;;;;;;;;;;14.80;99.90;;;;;;5069931;28;20333;-64
2022/05/27 01:48:45;;;;;;;;;;;14.80;99.90;;;;;;5070077;28;19963;-63
2022/05/27 01:51:16;;;;;;;;;;;14.80;99.90;;;;;;5070446;28;20461;-64
2022/05/27 01:54:03;;;;;;;;;;;14.70;99.90;;;;;;5070080;28;19974;-63
2022/05/27 01:56:32;;;;;;;;;;;14.70;99.90;;;;;;5070658;28;19925;-63
2022/05/27 01:59:01;;;;;;;;;;;14.70;99.90;;;;;;5085797;28;19924;-64
2022/05/27 02:01:31;;;;;;;;;;;14.70;99.90;;;;;;5069960;28;20118;-64
2022/05/27 02:04:02;;;;;;;;;;;14.80;99.90;;;;;;5070238;28;19954;-64
2022/05/27 02:06:31;;;;;;;;;;;14.70;99.90;;;;;;5070214;28;19928;-64
2022/05/27 02:09:00;;;;;;;;;;;14.80;99.90;;;;;;5069944;28;19924;-64
2022/05/27 02:11:28;;;;;;;;;;;14.80;99.90;;;;;;5070196;28;20018;-64
2022/05/27 02:13:59;;;;;;;;;;;14.80;99.90;;;;;;5069848;28;19925;-64
2022/05/27 02:16:28;;;;;;;;;;;14.80;99.90;;;;;;5070019;28;19928;-64
2022/05/27 02:18:59;;;;;;;;;;;14.80;99.90;;;;;;5069537;28;19970;-64
2022/05/27 02:21:29;;;;;;;;;;;14.70;99.90;;;;;;5070080;28;19924;-64
2022/05/27 02:23:58;;;;;;;;;;;14.70;99.90;;;;;;5069803;28;20280;-64
2022/05/27 02:26:27;;;;;;;;;;;14.70;99.90;;;;;;5070116;28;19932;-64
2022/05/27 02:29:03;;;;;;;;;;;14.60;99.90;;;;;;5069750;28;20397;-64
2022/05/27 02:31:31;;;;;;;;;;;14.60;99.90;;;;;;5069987;28;19925;-64
2022/05/27 02:36:47;;;;;;;;;;;14.10;99.90;;;;;;5069746;28;19925;-64
2022/05/27 02:39:14;;;;;;;;;;;13.80;99.90;;;;;;5069737;28;19978;-64
2022/05/27 02:41:44;;;;;;;;;;;13.60;99.90;;;;;;5069861;28;20388;-63
2022/05/27 02:44:19;;;;;;;;;;;13.50;99.90;;;;;;5069649;28;19931;-63
2022/05/27 02:46:49;;;;;;;;;;;13.40;99.90;;;;;;5069840;28;19974;-66
2022/05/27 02:49:22;;;;;;;;;;;13.40;99.90;;;;;;5069471;28;19929;-65
2022/05/27 02:51:55;;;;;;;;;;;13.30;99.90;;;;;;5069819;28;19924;-63
2022/05/27 02:54:24;;;;;;;;;;;13.30;99.90;;;;;;5069755;28;19928;-64
2022/05/27 02:56:55;;;;;;;;;;;13.20;99.90;;;;;;5069778;28;19925;-64
2022/05/27 02:59:23;;;;;;;;;;;13.00;99.90;;;;;;5069569;28;20374;-63
2022/05/27 03:01:49;;;;;;;;;;;13.00;99.90;;;;;;5069510;28;19929;-64
2022/05/27 03:04:19;;;;;;;;;;;12.90;99.90;;;;;;5086594;28;19924;-64
2022/05/27 03:06:53;;;;;;;;;;;12.90;99.90;;;;;;5069659;28;19924;-64
2022/05/27 03:09:23;;;;;;;;;;;12.90;99.90;;;;;;5069401;28;20358;-63
2022/05/27 03:11:55;;;;;;;;;;;12.90;99.90;;;;;;5069561;28;19928;-64
2022/05/27 03:14:34;;;;;;;;;;;12.90;99.90;;;;;;5069308;28;19950;-66
2022/05/27 03:17:09;;;;;;;;;;;12.90;99.90;;;;;;5069827;28;19929;-64
2022/05/27 03:19:54;;;;;;;;;;;12.90;99.90;;;;;;5069417;28;20292;-65
2022/05/27 03:22:26;;;;;;;;;;;12.90;99.90;;;;;;5069700;28;19924;-64
2022/05/27 03:25:01;;;;;;;;;;;12.90;99.90;;;;;;5069508;28;19967;-64
2022/05/27 03:27:33;;;;;;;;;;;12.90;99.90;;;;;;5069582;28;20176;-64
2022/05/27 03:30:04;;;;;;;;;;;13.00;99.90;;;;;;5072153;28;19932;-64
2022/05/27 03:32:35;;;;;;;;;;;13.00;99.90;;;;;;5073008;28;19978;-63
2022/05/27 03:35:06;;;;;;;;;;;13.00;99.90;;;;;;5073092;28;19924;-63
2022/05/27 03:37:36;;;;;;;;;;;12.90;99.90;;;;;;5073193;28;19931;-63
2022/05/27 03:40:06;;;;;;;;;;;12.90;99.90;;;;;;5072742;28;20380;-64
2022/05/27 03:42:35;;;;;;;;;;;13.00;99.90;;;;;;5072911;28;19933;-63
2022/05/27 03:45:03;;;;;;;;;;;13.00;99.90;;;;;;5072690;28;19967;-63
2022/05/27 03:47:30;;;;;;;;;;;13.10;99.90;;;;;;5073009;28;19924;-64
2022/05/27 03:49:57;;;;;;;;;;;13.10;99.90;;;;;;5072545;28;19939;-64
2022/05/27 03:52:27;;;;;;;;;;;13.10;99.90;;;;;;5072724;28;19970;-64
2022/05/27 03:54:54;;;;;;;;;;;13.10;99.90;;;;;;5072561;28;20354;-64
2022/05/27 03:57:21;;;;;;;;;;;13.20;99.90;;;;;;5089423;28;19932;-64
2022/05/27 03:59:48;;;;;;;;;;;13.20;99.90;;;;;;5072287;28;19925;-63
2022/05/27 04:02:14;;;;;;;;;;;13.20;99.90;;;;;;5072601;28;19928;-64
2022/05/27 04:04:41;;;;;;;;;;;13.20;99.90;;;;;;5072197;28;19970;-63
2022/05/27 04:07:08;;;;;;;;;;;13.10;99.90;;;;;;5072529;28;19924;-64
2022/05/27 04:09:36;;;;;;;;;;;13.20;99.90;;;;;;5072148;28;20357;-63
2022/05/27 04:12:03;;;;;;;;;;;13.20;99.90;;;;;;5072373;28;19957;-64
2022/05/27 04:14:31;;;;;;;;;;;13.20;99.90;;;;;;5072061;28;19981;-66
2022/05/27 04:19:39;;;;;;;;;;;13.20;99.90;;;;;;5070781;28;19920;-64
2022/05/27 04:22:05;;;;;;;;;;;13.10;99.90;;;;;;5072152;28;19925;-64
2022/05/27 04:24:33;;;;;;;;;;;13.10;99.90;;;;;;5072035;28;19924;-64
2022/05/27 04:27:07;;;;;;;;;;;13.10;99.90;;;;;;5072053;28;20354;-64
2022/05/27 04:29:33;;;;;;;;;;;13.20;99.90;;;;;;5071753;28;19924;-62
2022/05/27 04:32:00;;;;;;;;;;;13.20;99.90;;;;;;5071874;28;19925;-64
2022/05/27 04:34:27;;;;;;;;;;;13.10;99.90;;;;;;5071653;28;19924;-65
2022/05/27 04:36:54;;;;;;;;;;;13.00;99.90;;;;;;5071974;28;20339;-63
2022/05/27 04:39:21;;;;;;;;;;;13.00;99.90;;;;;;5071740;28;19928;-64
2022/05/27 04:41:47;;;;;;;;;;;12.90;99.90;;;;;;5070851;28;19924;-66
2022/05/27 04:44:16;;;;;;;;;;;12.90;99.90;;;;;;5071391;28;19928;-64
2022/05/27 04:46:45;;;;;;;;;;;13.00;99.90;;;;;;5071970;28;19925;-65
2022/05/27 04:49:50;;;;;;;;;;;12.90;99.90;;;;;;5071392;28;19977;-65
2022/05/27 04:51:59;;;;;;;;;;;13.00;99.90;;;;;;5071217;28;19934;-64
2022/05/27 04:54:26;;;;;;;;;;;12.90;99.90;;;;;;5071218;28;19925;-61
2022/05/27 04:56:53;;;;;;;;;;;13.00;99.90;;;;;;5071460;28;20335;-62
2022/05/27 04:59:21;;;;;;;;;;;13.00;99.90;;;;;;5071383;28;20452;-63
2022/05/27 05:01:48;;;;;;;;;;;13.00;99.90;;;;;;5068715;28;19932;-62
2022/05/27 05:04:15;;;;;;;;;;;13.10;99.90;;;;;;5069434;28;19970;-62
2022/05/27 05:06:42;;;;;;;;;;;13.10;99.90;;;;;;5071031;28;20292;-63
2022/05/27 05:09:09;;;;;;;;;;;13.20;99.90;;;;;;5070910;28;19925;-62
2022/05/27 05:11:36;;;;;;;;;;;13.10;99.90;;;;;;5071221;28;19924;-60
2022/05/27 05:14:03;;;;;;;;;;;13.20;99.90;;;;;;5070840;28;19929;-65
2022/05/27 05:16:31;;;;;;;;;;;13.30;99.90;;;;;;5070811;28;19943;-63
2022/05/27 05:18:58;;;;;;;;;;;13.20;99.90;;;;;;5070478;28;19924;-63
2022/05/27 05:21:25;;;;;;;;;;;13.30;99.90;;;;;;5070598;28;19933;-63
2022/05/27 05:23:51;;;;;;;;;;;13.20;99.90;;;;;;5070563;28;19928;-65
2022/05/27 05:26:18;;;;;;;;;;;13.30;99.90;;;;;;5070861;28;19974;-63
2022/05/27 05:28:45;;;;;;;;;;;13.20;99.90;;;;;;5070238;28;20457;-62
2022/05/27 05:31:16;;;;;;;;;;;13.20;99.90;;;;;;5070368;28;19924;-63
2022/05/27 05:33:44;;;;;;;;;;;13.30;99.90;;;;;;5069806;28;19928;-64
2022/05/27 05:36:11;;;;;;;;;;;13.30;99.90;;;;;;5070263;28;19924;-64
2022/05/27 05:38:38;;;;;;;;;;;13.30;99.90;;;;;;5070108;28;19924;-64
2022/05/27 05:41:05;;;;;;;;;;;13.40;99.90;;;;;;5070126;28;19924;-67
2022/05/27 05:43:32;;;;;;;;;;;13.30;99.90;;;;;;5070082;28;19925;-63
2022/05/27 05:45:59;;;;;;;;;;;13.30;99.90;;;;;;5070068;28;19924;-65
2022/05/27 05:48:26;;;;;;;;;;;13.40;99.90;;;;;;5069855;28;19928;-64
2022/05/27 05:50:54;;;;;;;;;;;13.40;99.90;;;;;;5069982;28;19928;-65
2022/05/27 05:53:21;;;;;;;;;;;13.50;99.90;;;;;;5070028;28;19932;-65
2022/05/27 05:55:48;;;;;;;;;;;13.50;99.90;;;;;;5069938;28;19925;-64
2022/05/27 05:58:15;;;;;;;;;;;13.50;99.90;;;;;;5070088;28;19925;-63
2022/05/27 06:00:42;;;;;;;;;;;13.50;99.90;;;;;;5069796;28;20391;-64
2022/05/27 06:03:10;;;;;;;;;;;13.50;99.90;;;;;;5069755;28;20354;-63
2022/05/27 06:05:40;;;;;;;;;;;13.40;99.90;;;;;;5069720;28;20396;-64
2022/05/27 06:08:08;;;;;;;;;;;13.50;99.90;;;;;;5070123;28;19924;-64
2022/05/27 06:10:35;;;;;;;;;;;13.50;99.90;;;;;;5069827;28;19929;-63
2022/05/27 06:13:02;;;;;;;;;;;13.40;99.90;;;;;;5069872;28;19925;-63
2022/05/27 06:15:29;;;;;;;;;;;13.50;99.90;;;;;;5069485;28;19931;-64
2022/05/27 06:17:56;;;;;;;;;;;13.50;99.90;;;;;;5070028;28;20322;-64
2022/05/27 06:20:22;;;;;;;;;;;13.60;99.90;;;;;;5069933;28;20469;-65
2022/05/27 06:22:49;;;;;;;;;;;13.60;99.90;;;;;;5070021;28;19925;-64
2022/05/27 06:25:17;;;;;;;;;;;13.60;99.90;;;;;;5069472;28;19925;-64
2022/05/27 06:27:44;;;;;;;;;;;13.70;99.90;;;;;;5069674;28;19950;-64
2022/05/27 06:35:41;;;;;;;;;;;13.80;99.90;;;;;;5069541;28;20043;-63
2022/05/27 06:38:08;;;;;;;;;;;13.90;99.90;;;;;;5069390;28;19981;-63
2022/05/27 06:40:36;;;;;;;;;;;14.00;99.90;;;;;;5069061;28;19928;-64
2022/05/27 06:43:03;;;;;;;;;;;14.20;99.90;;;;;;5069559;28;19928;-63
2022/05/27 06:45:30;;;;;;;;;;;14.20;99.90;;;;;;5069201;28;19970;-64
2022/05/27 06:47:57;;;;;;;;;;;14.20;99.90;;;;;;5069438;28;19925;-64
2022/05/27 06:50:24;;;;;;;;;;;14.30;99.90;;;;;;5069129;28;19932;-63
2022/05/27 06:52:53;;;;;;;;;;;14.30;99.90;;;;;;5069465;28;19935;-65
2022/05/27 06:55:20;;;;;;;;;;;14.30;99.90;;;;;;5069219;28;19925;-65
2022/05/27 06:57:48;;;;;;;;;;;14.40;99.90;;;;;;5069601;28;19925;-63
2022/05/27 07:00:15;;;;;;;;;;;14.40;99.90;;;;;;5069029;28;20303;-63
2022/05/27 07:02:42;;;;;;;;;;;14.40;99.90;;;;;;5069277;28;19924;-65
2022/05/27 07:05:09;;;;;;;;;;;14.40;99.90;;;;;;5072669;28;19932;-64
2022/05/27 07:07:36;;;;;;;;;;;14.60;99.90;;;;;;5073182;28;19925;-65
2022/05/27 07:10:03;;;;;;;;;;;14.70;99.90;;;;;;5072535;28;20361;-63
2022/05/27 07:12:30;;;;;;;;;;;14.80;99.90;;;;;;5072996;28;20309;-64
2022/05/27 07:14:58;;;;;;;;;;;14.90;99.90;;;;;;5072720;28;19929;-64
2022/05/27 07:17:25;;;;;;;;;;;14.90;99.90;;;;;;5072926;28;19928;-64
2022/05/27 07:19:52;;;;;;;;;;;15.00;99.90;;;;;;5072741;28;19935;-62
2022/05/27 07:22:19;;;;;;;;;;;15.10;99.90;;;;;;5072865;28;19978;-65
2022/05/27 07:24:45;;;;;;;;;;;15.10;99.90;;;;;;5072928;28;19924;-64
2022/05/27 07:27:12;;;;;;;;;;;15.10;99.90;;;;;;5073048;28;19967;-65
2022/05/27 07:29:39;;;;;;;;;;;15.20;99.90;;;;;;5072671;28;19931;-64
2022/05/27 07:32:07;;;;;;;;;;;15.20;99.90;;;;;;5072681;28;19931;-63
2022/05/27 07:34:34;;;;;;;;;;;15.20;99.90;;;;;;5072681;28;20350;-65
2022/05/27 07:37:01;;;;;;;;;;;15.30;99.90;;;;;;5073010;28;19924;-64
2022/05/27 07:39:28;;;;;;;;;;;15.40;99.90;;;;;;5072587;28;19929;-67
2022/05/27 07:41:55;;;;;;;;;;;15.40;99.90;;;;;;5072757;28;19925;-64
2022/05/27 07:44:21;;;;;;;;;;;15.50;99.90;;;;;;5072759;28;19924;-65
2022/05/27 07:46:51;;;;;;;;;;;15.50;99.90;;;;;;5072776;28;19925;-66
2022/05/27 07:49:19;;;;;;;;;;;15.50;99.90;;;;;;5072452;28;19925;-64
2022/05/27 07:51:46;;;;;;;;;;;15.70;99.90;;;;;;5072685;28;19928;-64
2022/05/27 07:54:13;;;;;;;;;;;16.00;99.90;;;;;;5072086;28;20055;-64
2022/05/27 07:56:40;;;;;;;;;;;16.50;99.90;;;;;;5073109;28;19928;-65
2022/05/27 07:59:07;;;;;;;;;;;16.40;99.90;;;;;;5072242;28;19924;-63
2022/05/27 08:01:36;;;;;;;;;;;16.40;99.90;;;;;;5072507;28;20398;-66
2022/05/27 08:04:02;;;;;;;;;;;16.50;99.90;;;;;;5072252;28;19924;-63
2022/05/27 08:06:31;;;;;;;;;;;16.50;99.90;;;;;;5072192;28;19924;-66
2022/05/27 08:08:58;;;;;;;;;;;16.50;99.90;;;;;;5071995;28;19929;-64
2022/05/27 08:11:25;;;;;;;;;;;16.40;99.90;;;;;;5072133;28;20024;-64
2022/05/27 08:13:51;;;;;;;;;;;16.20;99.90;;;;;;5071629;28;19935;-66
2022/05/27 08:16:18;;;;;;;;;;;16.20;99.90;;;;;;5070723;28;20415;-65
2022/05/27 08:18:45;;;;;;;;;;;16.30;99.90;;;;;;5072013;28;20395;-63
2022/05/27 08:21:12;;;;;;;;;;;16.30;99.90;;;;;;5071866;28;20396;-66
2022/05/27 08:23:40;;;;;;;;;;;16.30;99.90;;;;;;5071845;28;19925;-65
2022/05/27 08:26:07;;;;;;;;;;;16.40;99.90;;;;;;5071963;28;19978;-65
2022/05/27 08:28:34;;;;;;;;;;;16.70;99.90;;;;;;5072113;28;19931;-66
2022/05/27 08:31:01;;;;;;;;;;;17.00;99.90;;;;;;5071356;28;19924;-65
2022/05/27 08:38:00;;;;;;;;;;;17.00;99.90;;;;;;5071662;28;20354;-64
2022/05/27 08:39:06;;;;;;;;;;;16.90;99.90;;;;;;5070975;28;20043;-65
2022/05/27 08:41:39;;;;;;;;;;;16.60;99.90;;;;;;5071564;28;19932;-65
2022/05/27 08:44:15;;;;;;;;;;;16.90;99.90;;;;;;5071158;28;19928;-65
2022/05/27 08:46:46;;;;;;;;;;;17.20;99.90;;;;;;5071578;28;19925;-65
2022/05/27 08:49:16;;;;;;;;;;;17.40;99.90;;;;;;5071170;28;19928;-67
2022/05/27 08:51:45;;;;;;;;;;;17.70;99.90;;;;;;5071151;28;19948;-65
2022/05/27 08:54:15;;;;;;;;;;;17.60;99.90;;;;;;5071340;28;20019;-65
2022/05/27 08:59:36;;;;;;;;;;;17.70;99.90;;;;;;5070754;28;19920;-65
2022/05/27 09:02:04;;;;;;;;;;;17.90;99.90;;;;;;5070803;28;19931;-65
2022/05/27 09:04:34;;;;;;;;;;;18.00;99.90;;;;;;5070659;28;19978;-65
2022/05/27 09:07:06;;;;;;;;;;;17.80;99.90;;;;;;5070989;28;19925;-66
2022/05/27 09:09:34;;;;;;;;;;;17.90;99.90;;;;;;5070744;28;19948;-66
2022/05/27 09:12:09;;;;;;;;;;;18.10;99.90;;;;;;5070702;28;19978;-64
2022/05/27 09:14:37;;;;;;;;;;;18.20;99.90;;;;;;5070479;28;19924;-65
2022/05/27 09:17:06;;;;;;;;;;;18.10;99.90;;;;;;5070784;28;19924;-65
2022/05/27 09:19:36;;;;;;;;;;;18.10;99.90;;;;;;5070305;28;20381;-65
2022/05/27 09:22:08;;;;;;;;;;;18.00;99.90;;;;;;5070639;28;19924;-66
2022/05/27 09:24:40;;;;;;;;;;;18.00;99.90;;;;;;5070233;28;19928;-67
2022/05/27 09:27:08;;;;;;;;;;;18.20;99.90;;;;;;5070236;28;19928;-64
2022/05/27 09:29:44;;;;;;;;;;;18.30;99.90;;;;;;5070384;28;19924;-64
2022/05/27 09:32:14;;;;;;;;;;;18.30;99.90;;;;;;5070266;28;19925;-64
2022/05/27 09:34:43;;;;;;;;;;;18.40;99.90;;;;;;5069982;28;19925;-65
2022/05/27 09:37:11;;;;;;;;;;;18.30;99.90;;;;;;5070283;28;19924;-66
2022/05/27 09:39:39;;;;;;;;;;;18.30;99.90;;;;;;5069884;28;20396;-66
2022/05/27 09:42:12;;;;;;;;;;;18.40;99.90;;;;;;5070213;28;20296;-64
2022/05/27 09:44:41;;;;;;;;;;;18.60;99.90;;;;;;5070141;28;19924;-65
2022/05/27 09:47:07;;;;;;;;;;;18.60;99.90;;;;;;5070220;28;19970;-64
2022/05/27 09:49:35;;;;;;;;;;;18.60;99.90;;;;;;5070011;28;19928;-65
2022/05/27 09:52:02;;;;;;;;;;;18.40;99.90;;;;;;5070012;28;20298;-64
2022/05/27 09:54:34;;;;;;;;;;;18.30;99.90;;;;;;5069857;28;19950;-64
2022/05/27 09:57:03;;;;;;;;;;;18.60;99.90;;;;;;5070350;28;20179;-64
2022/05/27 09:59:37;;;;;;;;;;;18.80;99.90;;;;;;5069821;28;19924;-65
2022/05/27 10:02:14;;;;;;;;;;;19.10;99.90;;;;;;5069881;28;19954;-64
2022/05/27 10:04:49;;;;;;;;;;;19.00;99.90;;;;;;5069684;28;19970;-66
2022/05/27 10:07:23;;;;;;;;;;;19.30;99.90;;;;;;5070246;28;19932;-65
2022/05/27 10:09:50;;;;;;;;;;;19.00;99.90;;;;;;5069724;28;19928;-66
2022/05/27 10:12:27;;;;;;;;;;;18.80;99.90;;;;;;5069531;28;19924;-65
2022/05/27 10:14:55;;;;;;;;;;;18.90;99.90;;;;;;5069687;28;20451;-64
2022/05/27 10:17:28;;;;;;;;;;;18.80;99.90;;;;;;5069656;28;19943;-66
2022/05/27 10:20:13;;;;;;;;;;;19.00;99.90;;;;;;5069647;28;19925;-66
2022/05/27 10:22:40;;;;;;;;;;;19.20;99.90;;;;;;5069721;28;19928;-65
2022/05/27 10:25:11;;;;;;;;;;;19.50;99.90;;;;;;5069628;28;19928;-65
2022/05/27 10:27:40;;;;;;;;;;;19.70;99.90;;;;;;5069670;28;19956;-65
2022/05/27 10:30:08;;;;;;;;;;;19.60;99.90;;;;;;5069326;28;19924;-66
2022/05/27 10:32:37;;;;;;;;;;;19.40;99.90;;;;;;5069510;28;19924;-65
2022/05/27 10:35:05;;;;;;;;;;;19.50;99.90;;;;;;5069551;28;19924;-65
2022/05/27 10:37:38;;;;;;;;;;;19.60;99.90;;;;;;5069694;28;19947;-65
2022/05/27 10:40:20;;;;;;;;;;;19.60;99.90;;;;;;5072602;28;19931;-63
2022/05/27 10:42:52;;;;;;;;;;;19.70;99.90;;;;;;5073420;28;19928;-65
2022/05/27 10:45:20;;;;;;;;;;;19.50;99.90;;;;;;5073512;28;20396;-65
2022/05/27 10:47:55;;;;;;;;;;;19.40;99.90;;;;;;5073245;28;19974;-66
2022/05/27 10:50:26;;;;;;;;;;;19.20;99.90;;;;;;5073157;28;19928;-65
2022/05/27 10:53:11;;;;;;;;;;;19.00;99.90;;;;;;5073482;28;19960;-65
2022/05/27 10:55:45;;;;;;;;;;;18.90;99.90;;;;;;5072879;28;19924;-65
2022/05/27 11:04:07;;;;;;;;;;;19.20;99.90;;;;;;5073202;28;19920;-65
2022/05/27 11:06:44;;;;;;;;;;;19.30;99.90;;;;;;5073412;28;19931;-64
2022/05/27 11:09:17;;;;;;;;;;;19.50;99.90;;;;;;5073033;28;19925;-66
2022/05/27 11:11:45;;;;;;;;;;;19.50;99.90;;;;;;5072739;28;19974;-66
2022/05/27 11:17:23;;;;;;;;;;;19.60;99.90;;;;;;4995600;28;19975;-65
2022/05/27 11:20:02;;;;;;;;;;;19.80;99.90;;;;;;5057923;28;19985;-65
2022/05/27 11:22:35;;;;;;;;;;;19.90;99.90;;;;;;5073286;28;19932;-64
2022/05/27 11:25:08;;;;;;;;;;;19.90;99.90;;;;;;5072773;28;19947;-65
2022/05/27 11:27:43;;;;;;;;;;;19.90;99.90;;;;;;5073239;28;19978;-65
2022/05/27 11:30:18;;;;;;;;;;;20.10;99.90;;;;;;5072414;28;19968;-64
2022/05/27 11:32:56;;;;;;;;;;;20.30;99.90;;;;;;5072496;28;19928;-64
2022/05/27 11:35:28;;;;;;;;;;;20.90;99.90;;;;;;5072508;28;19978;-64
2022/05/27 11:38:02;;;;;;;;;;;21.80;99.90;;;;;;5072842;28;20383;-65
2022/05/27 11:40:33;;;;;;;;;;;22.10;99.90;;;;;;5072113;28;19924;-65
2022/05/27 11:43:20;;;;;;;;;;;21.30;99.90;;;;;;5072440;28;20307;-64
2022/05/27 11:45:56;;;;;;;;;;;20.80;99.90;;;;;;5067225;28;19928;-66
2022/05/27 11:48:26;;;;;;;;;;;20.70;99.90;;;;;;5072703;28;19925;-65
2022/05/27 11:51:02;;;;;;;;;;;21.20;99.90;;;;;;5072115;28;20447;-65
2022/05/27 11:53:39;;;;;;;;;;;20.90;99.90;;;;;;5072320;28;20388;-65
2022/05/27 11:56:12;;;;;;;;;;;21.00;99.90;;;;;;5072556;28;20076;-64
2022/05/27 11:58:45;;;;;;;;;;;21.00;99.90;;;;;;5072398;28;19925;-65
2022/05/27 12:01:18;;;;;;;;;;;21.40;99.90;;;;;;5072242;28;19924;-66
2022/05/27 12:03:47;;;;;;;;;;;22.10;99.90;;;;;;5072138;28;19925;-65
2022/05/27 12:06:17;;;;;;;;;;;22.60;99.90;;;;;;5072053;28;19924;-64
2022/05/27 12:08:46;;;;;;;;;;;22.60;99.90;;;;;;5072425;28;19924;-64
2022/05/27 12:11:16;;;;;;;;;;;23.10;99.90;;;;;;5072172;28;19928;-66
2022/05/27 12:13:44;;;;;;;;;;;23.50;99.90;;;;;;5072248;28;19928;-65
2022/05/27 12:16:13;;;;;;;;;;;24.00;99.90;;;;;;5072325;28;19924;-66
2022/05/27 12:18:44;;;;;;;;;;;24.00;99.90;;;;;;5073283;28;20408;-65
2022/05/27 12:21:12;;;;;;;;;;;23.20;99.90;;;;;;5071643;28;20459;-65
2022/05/27 12:23:41;;;;;;;;;;;22.60;99.90;;;;;;5072728;28;19931;-65
2022/05/27 12:26:08;;;;;;;;;;;23.40;99.90;;;;;;5073069;28;19963;-65
2022/05/27 12:28:37;;;;;;;;;;;23.60;99.90;;;;;;5071996;28;19963;-65
2022/05/27 12:31:05;;;;;;;;;;;22.90;99.90;;;;;;5071365;28;19929;-67
2022/05/27 12:33:35;;;;;;;;;;;22.40;99.90;;;;;;5071428;28;19955;-63
2022/05/27 12:36:04;;;;;;;;;;;22.60;99.90;;;;;;5071926;28;19975;-65
2022/05/27 12:38:31;;;;;;;;;;;23.20;99.90;;;;;;5071391;28;19925;-66
2022/05/27 12:41:00;;;;;;;;;;;23.70;99.90;;;;;;5071280;28;20016;-65
2022/05/27 12:43:28;;;;;;;;;;;24.20;99.90;;;;;;5071093;28;19924;-64
2022/05/27 12:45:56;;;;;;;;;;;25.00;99.90;;;;;;5071221;28;20251;-65
2022/05/27 12:48:34;;;;;;;;;;;25.40;99.90;;;;;;5071365;28;19925;-65
2022/05/27 12:51:02;;;;;;;;;;;25.40;99.90;;;;;;5071070;28;19924;-65
2022/05/27 12:53:39;;;;;;;;;;;24.40;99.90;;;;;;5070993;28;19924;-65
2022/05/27 13:02:27;;;;;;;;;;;24.00;99.90;;;;;;5037084;28;19978;-65
2022/05/27 13:04:54;;;;;;;;;;;24.20;99.90;;;;;;5070826;28;19928;-65
2022/05/27 13:07:22;;;;;;;;;;;24.60;99.90;;;;;;5071121;28;20482;-65
2022/05/27 13:09:51;;;;;;;;;;;25.50;99.90;;;;;;5070759;28;19924;-65
2022/05/27 13:12:32;;;;;;;;;;;25.60;99.90;;;;;;5070631;28;20031;-65
2022/05/27 13:15:07;;;;;;;;;;;24.80;99.90;;;;;;5069609;28;19928;-65
2022/05/27 13:17:35;;;;;;;;;;;24.60;99.90;;;;;;5070675;28;19929;-65
2022/05/27 13:20:18;;;;;;;;;;;24.90;99.90;;;;;;5070714;28;19981;-63
2022/05/27 13:22:51;;;;;;;;;;;25.00;99.90;;;;;;5070518;28;19928;-64
2022/05/27 13:25:27;;;;;;;;;;;25.30;99.90;;;;;;5070410;28;19928;-66
2022/05/27 13:27:55;;;;;;;;;;;24.90;99.90;;;;;;5070508;28;19977;-66
2022/05/27 13:30:24;;;;;;;;;;;24.90;99.90;;;;;;5070061;28;20400;-65
2022/05/27 13:32:57;;;;;;;;;;;24.90;99.90;;;;;;5070544;28;19925;-66
2022/05/27 13:35:24;;;;;;;;;;;24.70;99.90;;;;;;5070025;28;19947;-65
2022/05/27 13:37:52;;;;;;;;;;;24.20;99.90;;;;;;5070266;28;20473;-66
2022/05/27 13:40:23;;;;;;;;;;;23.30;99.90;;;;;;5069817;28;19928;-64
2022/05/27 13:42:54;;;;;;;;;;;23.90;99.90;;;;;;5070592;28;19924;-65
2022/05/27 13:45:27;;;;;;;;;;;24.10;99.90;;;;;;5070073;28;19931;-64
2022/05/27 13:47:55;;;;;;;;;;;23.80;99.90;;;;;;5070344;28;19925;-65
2022/05/27 13:50:30;;;;;;;;;;;23.90;99.90;;;;;;5069792;28;20035;-65
2022/05/27 13:52:57;;;;;;;;;;;24.90;99.90;;;;;;5070047;28;20284;-65
2022/05/27 13:55:28;;;;;;;;;;;24.70;99.90;;;;;;5069888;28;19931;-66
2022/05/27 13:57:57;;;;;;;;;;;25.20;99.90;;;;;;5069992;28;19924;-65
2022/05/27 14:00:25;;;;;;;;;;;24.30;99.90;;;;;;5068241;28;20363;-65
2022/05/27 14:02:52;;;;;;;;;;;24.40;99.90;;;;;;5069767;28;19924;-66
2022/05/27 14:05:20;;;;;;;;;;;24.60;99.90;;;;;;5069567;28;19936;-66
2022/05/27 14:07:49;;;;;;;;;;;24.50;99.90;;;;;;5069920;28;19924;-65
2022/05/27 14:10:19;;;;;;;;;;;23.70;99.90;;;;;;5069482;28;19924;-65
2022/05/27 14:12:47;;;;;;;;;;;24.10;99.90;;;;;;5069272;28;20430;-65
2022/05/27 14:15:16;;;;;;;;;;;24.10;99.90;;;;;;5069483;28;19973;-66
2022/05/27 14:17:45;;;;;;;;;;;24.10;99.90;;;;;;5069702;28;19929;-66
2022/05/27 14:20:14;;;;;;;;;;;24.10;99.90;;;;;;5069746;28;20348;-66
2022/05/27 14:22:44;;;;;;;;;;;24.50;99.90;;;;;;5070014;28;19954;-66
2022/05/27 14:25:12;;;;;;;;;;;24.60;99.90;;;;;;5069450;28;19921;-66
2022/05/27 14:27:41;;;;;;;;;;;24.70;99.90;;;;;;5069645;28;19928;-65
2022/05/27 14:30:09;;;;;;;;;;;23.80;99.90;;;;;;5069507;28;19924;-65
2022/05/27 14:32:37;;;;;;;;;;;23.30;99.90;;;;;;5070015;28;19982;-66
2022/05/27 14:35:05;;;;;;;;;;;23.10;99.90;;;;;;5069245;28;19925;-65
2022/05/27 14:37:35;;;;;;;;;;;23.70;99.90;;;;;;5069566;28;19924;-67
2022/05/27 14:40:05;;;;;;;;;;;23.80;99.90;;;;;;5069355;28;19925;-67
2022/05/27 14:42:32;;;;;;;;;;;23.70;99.90;;;;;;5069451;28;19925;-66
2022/05/27 14:44:58;;;;;;;;;;;24.50;99.90;;;;;;5069287;28;19954;-66
2022/05/27 14:47:27;;;;;;;;;;;24.90;99.90;;;;;;5069708;28;19924;-65
2022/05/27 14:49:56;;;;;;;;;;;23.30;99.90;;;;;;5069376;28;20388;-66
2022/05/27 14:52:26;;;;;;;;;;;22.80;99.90;;;;;;5069430;28;19925;-64
2022/05/27 14:54:55;;;;;;;;;;;23.50;99.90;;;;;;5069372;28;19924;-65
2022/05/27 14:57:25;;;;;;;;;;;23.80;99.90;;;;;;5069434;28;20362;-65
2022/05/27 14:59:53;;;;;;;;;;;23.40;99.90;;;;;;5069361;28;20395;-65
2022/05/27 15:02:24;;;;;;;;;;;23.10;99.90;;;;;;5069449;28;19928;-66